Time;durP1;ratioP1;P1;durP2;ratioP2;P2;SDS_P1;SDS_P2;PMS_P1;PMS_P2;Temp;Humidity;BMP_temperature;BMP_pressure;BME280_temperature;BME280_humidity;BME280_pressure;Samples;Min_cycle;Max_cycle;Signal;HPM_P1;HPM_P2
2021/12/03 00:00:40;;;;;;;;;;;;;;;12.59;51.57;98031.41;4464833;32;34471;-71
2021/12/03 00:03:09;;;;;;;;;;;;;;;12.72;51.50;98036.25;4467949;32;33982;-71
2021/12/03 00:05:37;;;;;;;;;;;;;;;12.30;52.77;98036.44;4471278;32;34425;-71
2021/12/03 00:08:05;;;;;;;;;;;;;;;12.72;50.91;98030.88;4479020;32;34454;-70
2021/12/03 00:10:34;;;;;;;;;;;;;;;12.05;52.72;98030.22;4452673;32;34523;-71
2021/12/03 00:13:03;;;;;;;;;;;;;;;12.98;49.84;98033.34;4471260;32;35193;-71
2021/12/03 00:15:31;;;;;;;;;;;;;;;12.22;51.99;98028.38;4465562;32;34456;-71
2021/12/03 00:17:58;;;;;;;;;;;;;;;12.60;51.02;98024.19;4474430;32;33268;-71
2021/12/03 00:20:25;;;;;;;;;;;;;;;13.05;49.76;98022.75;4467883;32;34314;-71
2021/12/03 00:22:55;;;;;;;;;;;;;;;12.87;49.73;98031.00;4469504;32;34102;-71
2021/12/03 00:25:23;;;;;;;;;;;;;;;13.19;48.81;98037.31;4472573;32;33373;-70
2021/12/03 00:27:50;;;;;;;;;;;;;;;13.15;48.86;98039.50;4471041;32;32738;-71
2021/12/03 00:30:18;;;;;;;;;;;;;;;12.86;49.11;98039.25;4470757;32;33563;-71
2021/12/03 00:32:46;;;;;;;;;;;;;;;13.13;48.50;98049.59;4476447;32;33742;-70
2021/12/03 00:35:15;;;;;;;;;;;;;;;13.32;48.04;98053.75;4470211;32;34691;-72
2021/12/03 00:37:42;;;;;;;;;;;;;;;13.62;47.23;98060.19;4467703;32;32597;-74
2021/12/03 00:40:15;;;;;;;;;;;;;;;13.66;47.12;98068.75;4464413;32;33425;-74
2021/12/03 00:42:42;;;;;;;;;;;;;;;13.27;48.56;98054.28;4470989;32;34011;-73
2021/12/03 00:45:11;;;;;;;;;;;;;;;13.63;47.13;98069.09;4471111;32;33863;-73
2021/12/03 00:47:39;;;;;;;;;;;;;;;13.31;47.55;98073.56;4456801;32;33597;-74
2021/12/03 00:50:07;;;;;;;;;;;;;;;13.69;46.58;98079.16;4468690;32;32683;-72
2021/12/03 00:52:35;;;;;;;;;;;;;;;13.62;46.81;98087.06;4458958;32;33987;-73
2021/12/03 00:55:03;;;;;;;;;;;;;;;13.44;47.46;98089.16;4469604;32;35141;-72
2021/12/03 00:57:31;;;;;;;;;;;;;;;13.43;47.21;98082.94;4454969;32;34203;-75
2021/12/03 00:59:58;;;;;;;;;;;;;;;12.80;48.53;98084.53;4468719;32;33138;-72
2021/12/03 01:02:26;;;;;;;;;;;;;;;13.35;47.35;98076.75;4477063;32;32953;-72
2021/12/03 01:04:53;;;;;;;;;;;;;;;13.46;47.14;98095.19;4476740;32;35363;-75
2021/12/03 01:07:21;;;;;;;;;;;;;;;12.86;48.25;98096.47;4455404;32;34506;-75
2021/12/03 01:09:48;;;;;;;;;;;;;;;13.15;48.06;98101.28;4473012;32;34327;-77
2021/12/03 01:12:16;;;;;;;;;;;;;;;12.65;50.24;98094.31;4465214;32;34451;-74
2021/12/03 01:14:44;;;;;;;;;;;;;;;12.88;49.53;98099.00;4474903;32;34168;-75
2021/12/03 01:17:12;;;;;;;;;;;;;;;13.05;48.47;98095.25;4454898;32;35327;-76
2021/12/03 01:19:39;;;;;;;;;;;;;;;12.75;48.92;98097.66;4476769;32;33590;-75
2021/12/03 01:22:06;;;;;;;;;;;;;;;13.37;48.07;98102.44;4468346;32;35230;-76
2021/12/03 01:24:34;;;;;;;;;;;;;;;13.55;47.42;98098.69;4461057;32;34311;-75
2021/12/03 01:27:01;;;;;;;;;;;;;;;13.02;48.56;98100.97;4469517;32;32779;-75
2021/12/03 01:29:29;;;;;;;;;;;;;;;13.38;47.79;98108.66;4454862;32;33892;-75
2021/12/03 01:31:56;;;;;;;;;;;;;;;13.38;47.29;98105.97;4466587;32;34045;-74
2021/12/03 01:34:24;;;;;;;;;;;;;;;12.85;49.70;98102.84;4468023;32;34349;-75
2021/12/03 01:36:51;;;;;;;;;;;;;;;13.30;48.05;98106.84;4457657;32;34007;-75
2021/12/03 01:39:19;;;;;;;;;;;;;;;13.62;46.85;98099.69;4450445;32;830974;-76
2021/12/03 01:41:46;;;;;;;;;;;;;;;13.54;47.55;98110.44;4477924;32;34917;-76
2021/12/03 01:44:15;;;;;;;;;;;;;;;12.73;48.67;98112.25;4453650;32;33038;-76
2021/12/03 01:46:42;;;;;;;;;;;;;;;12.98;47.72;98111.22;4467806;32;34207;-76
2021/12/03 01:49:11;;;;;;;;;;;;;;;12.96;48.15;98120.44;4452565;32;33287;-76
2021/12/03 01:51:38;;;;;;;;;;;;;;;12.69;49.26;98124.34;4453916;32;34862;-76
2021/12/03 01:54:06;;;;;;;;;;;;;;;12.50;50.13;98133.53;4453602;32;33878;-75
2021/12/03 01:56:33;;;;;;;;;;;;;;;10.93;54.55;98130.34;4453447;32;33219;-75
2021/12/03 01:59:01;;;;;;;;;;;;;;;11.41;52.76;98119.09;4478381;32;33058;-75
2021/12/03 02:01:28;;;;;;;;;;;;;;;11.16;54.44;98126.13;4455284;32;33124;-75
2021/12/03 02:03:57;;;;;;;;;;;;;;;11.59;52.71;98121.69;4472519;32;35355;-75
2021/12/03 02:06:25;;;;;;;;;;;;;;;11.67;52.14;98128.94;4473244;32;34498;-75
2021/12/03 02:08:53;;;;;;;;;;;;;;;11.03;53.51;98143.63;4472444;32;33496;-75
2021/12/03 02:11:20;;;;;;;;;;;;;;;11.22;54.56;98147.94;4474558;32;33683;-75
2021/12/03 02:13:48;;;;;;;;;;;;;;;11.39;53.17;98152.38;4476876;32;34301;-74
2021/12/03 02:16:16;;;;;;;;;;;;;;;11.16;53.05;98141.37;4470502;32;35010;-75
2021/12/03 02:18:43;;;;;;;;;;;;;;;11.63;51.87;98138.28;4473028;32;33317;-74
2021/12/03 02:21:11;;;;;;;;;;;;;;;11.54;52.75;98149.97;4456134;32;34237;-74
2021/12/03 02:23:39;;;;;;;;;;;;;;;11.62;52.30;98152.66;4461631;32;34175;-75
2021/12/03 02:26:06;;;;;;;;;;;;;;;11.34;53.34;98154.72;4457823;32;34295;-74
2021/12/03 02:28:42;;;;;;;;;;;;;;;11.67;52.52;98150.38;4460783;32;33352;-74
2021/12/03 02:31:10;;;;;;;;;;;;;;;11.80;51.43;98147.25;4470061;32;36211;-73
2021/12/03 02:33:37;;;;;;;;;;;;;;;11.83;51.34;98158.47;4468617;32;34419;-74
2021/12/03 02:36:05;;;;;;;;;;;;;;;11.88;51.91;98164.22;4458924;32;33989;-75
2021/12/03 02:38:32;;;;;;;;;;;;;;;12.00;50.79;98182.69;4472289;32;33289;-75
2021/12/03 02:41:00;;;;;;;;;;;;;;;11.52;51.59;98176.06;4475695;32;33928;-76
2021/12/03 02:43:27;;;;;;;;;;;;;;;11.12;53.17;98186.37;4469959;32;34924;-76
2021/12/03 02:45:56;;;;;;;;;;;;;;;11.25;52.82;98190.47;4462200;32;34287;-76
2021/12/03 02:48:24;;;;;;;;;;;;;;;10.72;54.39;98194.87;4455764;32;33124;-76
2021/12/03 02:50:52;;;;;;;;;;;;;;;11.00;53.52;98201.00;4468064;32;35524;-76
2021/12/03 02:53:19;;;;;;;;;;;;;;;10.93;54.20;98208.81;4464754;32;35221;-73
2021/12/03 02:55:47;;;;;;;;;;;;;;;11.68;51.48;98210.16;4474317;32;35181;-74
2021/12/03 02:58:14;;;;;;;;;;;;;;;11.70;51.53;98210.84;4473353;32;34506;-74
2021/12/03 03:00:43;;;;;;;;;;;;;;;11.17;53.46;98218.88;4469343;32;33124;-74
2021/12/03 03:03:10;;;;;;;;;;;;;;;11.41;52.92;98226.25;4472719;32;35398;-73
2021/12/03 03:05:38;;;;;;;;;;;;;;;11.61;52.31;98229.56;4475327;32;32887;-73
2021/12/03 03:08:05;;;;;;;;;;;;;;;11.59;52.55;98242.28;4460418;32;31992;-73
2021/12/03 03:10:40;;;;;;;;;;;;;;;12.00;51.33;98242.53;4480142;32;35150;-73
2021/12/03 03:13:07;;;;;;;;;;;;;;;12.31;50.20;98244.69;4466546;32;35369;-72
2021/12/03 03:15:36;;;;;;;;;;;;;;;11.96;51.03;98253.75;4455393;32;33766;-73
2021/12/03 03:18:07;;;;;;;;;;;;;;;12.38;50.08;98258.28;4459107;32;33518;-73
2021/12/03 03:20:36;;;;;;;;;;;;;;;11.78;50.86;98260.00;4460935;32;32850;-73
2021/12/03 03:23:04;;;;;;;;;;;;;;;12.37;49.84;98257.44;4461500;32;35235;-74
2021/12/03 03:25:31;;;;;;;;;;;;;;;12.19;50.20;98252.16;4459748;32;33563;-74
2021/12/03 03:27:59;;;;;;;;;;;;;;;11.92;51.51;98255.06;4450740;32;33147;-73
2021/12/03 03:30:26;;;;;;;;;;;;;;;12.11;50.93;98261.03;4468270;32;35094;-73
2021/12/03 03:32:53;;;;;;;;;;;;;;;12.50;49.47;98265.88;4475611;32;34406;-75
2021/12/03 03:35:21;;;;;;;;;;;;;;;12.71;48.95;98275.31;4473495;32;35016;-74
2021/12/03 03:37:48;;;;;;;;;;;;;;;11.59;52.03;98284.31;4477431;32;33329;-76
2021/12/03 03:40:16;;;;;;;;;;;;;;;11.85;51.94;98285.19;4468455;32;34228;-74
2021/12/03 03:42:43;;;;;;;;;;;;;;;12.33;50.04;98286.44;4455292;32;33699;-73
2021/12/03 03:45:13;;;;;;;;;;;;;;;12.17;50.95;98294.41;4473107;32;34414;-73
2021/12/03 03:47:41;;;;;;;;;;;;;;;11.80;52.11;98300.03;4458139;32;33681;-73
2021/12/03 03:50:08;;;;;;;;;;;;;;;11.39;52.95;98302.41;4469789;32;35267;-72
2021/12/03 03:52:36;;;;;;;;;;;;;;;10.94;55.04;98308.69;4469678;32;34385;-75
2021/12/03 03:55:04;;;;;;;;;;;;;;;10.30;56.72;98317.66;4454560;32;34272;-74
2021/12/03 03:57:31;;;;;;;;;;;;;;;10.81;54.71;98310.91;4459264;32;33321;-73
2021/12/03 03:59:58;;;;;;;;;;;;;;;10.42;56.22;98311.13;4469736;32;33847;-73
2021/12/03 04:02:26;;;;;;;;;;;;;;;9.95;57.60;98309.34;4459202;32;35055;-74
2021/12/03 04:04:53;;;;;;;;;;;;;;;10.02;56.97;98313.09;4475453;32;34317;-74
2021/12/03 04:07:21;;;;;;;;;;;;;;;10.21;57.17;98312.19;4472858;32;33330;-73
2021/12/03 04:09:48;;;;;;;;;;;;;;;9.66;58.13;98309.41;4469887;32;34172;-73
2021/12/03 04:12:16;;;;;;;;;;;;;;;9.99;57.40;98315.22;4474252;32;33098;-74
2021/12/03 04:14:43;;;;;;;;;;;;;;;9.39;58.61;98326.16;4473949;32;32661;-73
2021/12/03 04:17:10;;;;;;;;;;;;;;;9.41;59.30;98331.37;4473111;32;33393;-74
2021/12/03 04:19:38;;;;;;;;;;;;;;;8.79;60.98;98342.28;4469166;32;35043;-73
2021/12/03 04:22:06;;;;;;;;;;;;;;;9.09;60.60;98352.03;4473951;32;35401;-73
2021/12/03 04:24:33;;;;;;;;;;;;;;;9.40;59.14;98357.22;4470342;32;34951;-75
2021/12/03 04:27:00;;;;;;;;;;;;;;;9.68;58.63;98362.69;4473459;32;32127;-74
2021/12/03 04:29:27;;;;;;;;;;;;;;;9.81;57.50;98368.56;4469452;32;35516;-74
2021/12/03 04:31:55;;;;;;;;;;;;;;;9.68;57.68;98368.03;4468652;32;32965;-74
2021/12/03 04:34:22;;;;;;;;;;;;;;;9.74;57.31;98373.62;4454538;32;34397;-76
2021/12/03 04:36:49;;;;;;;;;;;;;;;9.56;59.07;98384.19;4464248;32;34462;-75
2021/12/03 04:39:17;;;;;;;;;;;;;;;9.92;56.77;98381.78;4475675;32;34149;-75
2021/12/03 04:41:44;;;;;;;;;;;;;;;9.91;57.00;98398.78;4477876;32;34454;-75
2021/12/03 04:44:12;;;;;;;;;;;;;;;9.29;58.29;98398.25;4478375;32;34240;-75
2021/12/03 04:46:39;;;;;;;;;;;;;;;9.04;59.30;98401.44;4455588;32;33306;-74
2021/12/03 04:49:07;;;;;;;;;;;;;;;8.65;61.79;98414.69;4474207;32;34314;-75
2021/12/03 04:51:34;;;;;;;;;;;;;;;8.54;60.40;98410.31;4476811;32;34235;-75
2021/12/03 04:54:01;;;;;;;;;;;;;;;8.99;60.02;98430.37;4476089;32;34036;-74
2021/12/03 04:56:29;;;;;;;;;;;;;;;9.02;59.18;98435.44;4458741;32;33241;-75
2021/12/03 04:58:56;;;;;;;;;;;;;;;9.07;59.78;98430.53;4462039;32;33999;-75
2021/12/03 05:01:27;;;;;;;;;;;;;;;8.71;59.84;98448.84;4472949;32;33459;-74
2021/12/03 05:03:54;;;;;;;;;;;;;;;8.48;61.80;98447.34;4476479;32;35045;-75
2021/12/03 05:06:30;;;;;;;;;;;;;;;9.02;59.21;98446.97;4476615;32;34333;-75
2021/12/03 05:08:57;;;;;;;;;;;;;;;9.27;57.56;98442.94;4478007;32;33977;-76
2021/12/03 05:11:24;;;;;;;;;;;;;;;9.74;58.12;98467.16;4474806;32;34085;-76
2021/12/03 05:13:52;;;;;;;;;;;;;;;9.22;59.04;98465.72;4476914;32;35092;-75
2021/12/03 05:16:19;;;;;;;;;;;;;;;9.92;55.90;98461.97;4474452;32;34361;-75
2021/12/03 05:18:48;;;;;;;;;;;;;;;8.99;58.41;98465.94;4475501;32;34338;-75
2021/12/03 05:21:15;;;;;;;;;;;;;;;9.20;59.09;98481.00;4477257;32;33676;-76
2021/12/03 05:23:43;;;;;;;;;;;;;;;8.57;59.45;98491.84;4478878;32;34326;-74
2021/12/03 05:26:10;;;;;;;;;;;;;;;8.81;58.36;98495.06;4473102;32;33722;-75
2021/12/03 05:28:37;;;;;;;;;;;;;;;8.94;58.40;98500.16;4475357;32;34291;-76
2021/12/03 05:31:05;;;;;;;;;;;;;;;9.40;56.77;98497.91;4478821;32;35304;-75
2021/12/03 05:33:32;;;;;;;;;;;;;;;8.86;57.32;98514.19;4469807;32;34353;-78
2021/12/03 05:36:00;;;;;;;;;;;;;;;7.90;60.34;98514.41;4477003;32;33544;-76
2021/12/03 05:38:27;;;;;;;;;;;;;;;8.87;58.29;98523.03;4471306;32;33939;-75
2021/12/03 05:40:55;;;;;;;;;;;;;;;9.47;56.19;98531.09;4478030;32;34209;-76
2021/12/03 05:43:22;;;;;;;;;;;;;;;8.39;57.49;98529.78;4462287;32;32582;-76
2021/12/03 05:45:50;;;;;;;;;;;;;;;8.96;56.77;98548.94;4473025;32;33281;-75
2021/12/03 05:48:17;;;;;;;;;;;;;;;8.09;57.58;98557.19;4462054;32;34123;-76
2021/12/03 05:50:45;;;;;;;;;;;;;;;8.49;56.80;98572.53;4475725;32;35188;-75
2021/12/03 05:53:12;;;;;;;;;;;;;;;8.35;57.08;98576.34;4459703;32;34890;-74
2021/12/03 05:55:40;;;;;;;;;;;;;;;9.34;55.02;98582.06;4474684;32;34414;-74
2021/12/03 05:58:07;;;;;;;;;;;;;;;9.01;54.00;98600.06;4476384;32;35053;-74
2021/12/03 06:00:36;;;;;;;;;;;;;;;9.28;53.88;98598.66;4476286;32;34331;-76
2021/12/03 06:03:04;;;;;;;;;;;;;;;9.04;53.66;98602.47;4471126;32;34281;-76
2021/12/03 06:05:32;;;;;;;;;;;;;;;8.96;55.13;98610.31;4479765;32;33503;-75
2021/12/03 06:07:59;;;;;;;;;;;;;;;9.31;52.83;98614.41;4463094;32;34603;-75
2021/12/03 06:10:27;;;;;;;;;;;;;;;9.32;52.19;98616.09;4467716;32;34313;-73
2021/12/03 06:12:54;;;;;;;;;;;;;;;9.58;51.34;98616.47;4457305;32;33844;-74
2021/12/03 06:15:22;;;;;;;;;;;;;;;10.29;49.61;98627.03;4476676;32;34694;-73
2021/12/03 06:17:49;;;;;;;;;;;;;;;11.01;46.24;98623.03;4475943;32;34276;-75
2021/12/03 06:20:17;;;;;;;;;;;;;;;10.72;46.78;98623.94;4458753;32;32306;-74
2021/12/03 06:22:45;;;;;;;;;;;;;;;10.26;47.61;98633.50;4464732;32;34126;-74
2021/12/03 06:25:17;;;;;;;;;;;;;;;10.56;47.24;98639.72;4457276;32;33170;-76
2021/12/03 06:27:44;;;;;;;;;;;;;;;10.23;49.73;98646.28;4460808;32;34424;-71
2021/12/03 06:30:13;;;;;;;;;;;;;;;10.24;48.18;98647.97;4476436;32;34319;-73
2021/12/03 06:32:40;;;;;;;;;;;;;;;11.13;46.33;98659.34;4475821;32;33992;-74
2021/12/03 06:35:09;;;;;;;;;;;;;;;11.23;45.10;98672.72;4462451;32;32377;-74
2021/12/03 06:37:36;;;;;;;;;;;;;;;10.91;45.66;98673.94;4474556;32;32869;-75
2021/12/03 06:40:06;;;;;;;;;;;;;;;10.74;45.08;98685.34;4481143;32;34105;-76
2021/12/03 06:42:33;;;;;;;;;;;;;;;10.86;45.83;98704.78;4459397;32;35058;-75
2021/12/03 06:45:03;;;;;;;;;;;;;;;10.72;44.43;98706.03;4473989;32;34723;-74
2021/12/03 06:47:31;;;;;;;;;;;;;;;10.98;45.19;98709.00;4458364;32;33270;-74
2021/12/03 06:49:58;;;;;;;;;;;;;;;10.96;44.65;98719.00;4463482;32;33839;-75
2021/12/03 06:52:26;;;;;;;;;;;;;;;11.20;43.44;98723.88;4469448;32;34032;-74
2021/12/03 06:54:59;;;;;;;;;;;;;;;11.41;45.08;98719.19;4469061;32;34319;-74
2021/12/03 06:57:26;;;;;;;;;;;;;;;11.81;43.60;98730.63;4468559;32;32877;-75
2021/12/03 06:59:54;;;;;;;;;;;;;;;11.51;42.76;98732.56;4473338;32;35027;-75
2021/12/03 07:02:21;;;;;;;;;;;;;;;12.10;40.80;98736.75;4474109;32;34054;-75
2021/12/03 07:04:48;;;;;;;;;;;;;;;10.80;45.43;98745.50;4478003;32;33546;-74
2021/12/03 07:07:16;;;;;;;;;;;;;;;11.29;42.76;98751.66;4467294;32;35209;-74
2021/12/03 07:09:43;;;;;;;;;;;;;;;11.30;42.55;98754.22;4469505;32;35497;-75
2021/12/03 07:12:11;;;;;;;;;;;;;;;11.89;42.18;98758.44;4472256;32;33986;-74
2021/12/03 07:14:38;;;;;;;;;;;;;;;11.55;42.37;98774.16;4452569;32;33377;-74
2021/12/03 07:17:06;;;;;;;;;;;;;;;12.02;40.39;98768.00;4471380;32;33776;-74
2021/12/03 07:19:34;;;;;;;;;;;;;;;11.71;41.56;98768.19;4473557;32;34130;-74
2021/12/03 07:22:01;;;;;;;;;;;;;;;11.76;41.23;98781.19;4461633;32;33981;-75
2021/12/03 07:24:29;;;;;;;;;;;;;;;12.38;39.69;98784.19;4476801;32;33065;-74
2021/12/03 07:26:56;;;;;;;;;;;;;;;12.34;39.84;98783.66;4459966;32;35197;-74
2021/12/03 07:29:24;;;;;;;;;;;;;;;12.32;40.06;98799.03;4475022;32;34376;-75
2021/12/03 07:31:52;;;;;;;;;;;;;;;12.12;40.62;98803.66;4476759;32;35057;-75
2021/12/03 07:34:19;;;;;;;;;;;;;;;12.01;41.04;98817.25;4467156;32;33443;-75
2021/12/03 07:36:47;;;;;;;;;;;;;;;11.97;39.71;98838.12;4475494;32;34014;-75
2021/12/03 07:39:14;;;;;;;;;;;;;;;11.77;41.37;98837.31;4478599;32;32887;-75
2021/12/03 07:41:41;;;;;;;;;;;;;;;12.64;39.49;98849.59;4477948;32;34063;-75
2021/12/03 07:44:09;;;;;;;;;;;;;;;12.53;39.20;98852.50;4476398;32;33531;-75
2021/12/03 07:46:36;;;;;;;;;;;;;;;12.18;40.40;98850.53;4465815;32;34887;-75
2021/12/03 07:49:04;;;;;;;;;;;;;;;11.94;40.55;98864.41;4481769;32;34443;-75
2021/12/03 07:51:37;;;;;;;;;;;;;;;11.85;41.56;98869.66;4469835;32;34786;-74
2021/12/03 07:54:04;;;;;;;;;;;;;;;11.54;40.93;98868.13;4475559;32;34266;-74
2021/12/03 07:56:31;;;;;;;;;;;;;;;11.75;39.24;98875.97;4477408;32;34244;-75
2021/12/03 07:58:59;;;;;;;;;;;;;;;11.70;40.18;98884.47;4464936;32;32701;-74
2021/12/03 08:01:26;;;;;;;;;;;;;;;11.78;41.66;98889.09;4472536;32;33962;-76
2021/12/03 08:03:55;;;;;;;;;;;;;;;11.53;40.21;98894.06;4467874;32;32984;-72
2021/12/03 08:06:22;;;;;;;;;;;;;;;12.02;39.38;98913.66;4469498;32;33036;-73
2021/12/03 08:08:49;;;;;;;;;;;;;;;12.08;40.54;98904.19;4460636;32;34195;-70
2021/12/03 08:11:17;;;;;;;;;;;;;;;12.82;38.85;98908.72;4473612;32;34734;-73
2021/12/03 08:13:44;;;;;;;;;;;;;;;13.84;36.53;98921.88;4474284;32;32625;-74
2021/12/03 08:16:12;;;;;;;;;;;;;;;13.58;35.86;98927.22;4475684;32;33169;-74
2021/12/03 08:18:39;;;;;;;;;;;;;;;14.05;36.74;98923.38;4478984;32;34323;-73
2021/12/03 08:21:06;;;;;;;;;;;;;;;14.55;33.27;98928.97;4476853;32;35121;-71
2021/12/03 08:23:34;;;;;;;;;;;;;;;13.34;35.83;98945.78;4474190;32;34144;-71
2021/12/03 08:26:01;;;;;;;;;;;;;;;13.89;35.32;98951.84;4475559;32;35121;-72
2021/12/03 08:28:29;;;;;;;;;;;;;;;13.05;37.10;98944.91;4467750;32;33179;-71
2021/12/03 08:30:56;;;;;;;;;;;;;;;13.45;37.07;98950.91;4468171;32;33872;-74
2021/12/03 08:33:24;;;;;;;;;;;;;;;12.28;39.09;98955.97;4467726;32;33485;-74
2021/12/03 08:35:52;;;;;;;;;;;;;;;12.96;38.02;98958.41;4468438;32;34115;-73
2021/12/03 08:38:19;;;;;;;;;;;;;;;12.59;39.52;98962.78;4454066;32;35316;-74
2021/12/03 08:41:07;;;;;;;;;;;;;;;13.15;34.47;98968.19;4472094;32;34490;-74
2021/12/03 08:43:34;;;;;;;;;;;;;;;13.09;35.95;98977.69;4465654;32;34468;-74
2021/12/03 08:46:09;;;;;;;;;;;;;;;12.90;36.34;98985.84;4478642;32;35187;-74
2021/12/03 08:48:39;;;;;;;;;;;;;;;13.36;35.31;98986.78;4474706;32;34324;-74
2021/12/03 08:56:31;;;;;;;;;;;;;;;13.63;33.91;99010.94;4476671;32;34111;-74
2021/12/03 08:58:58;;;;;;;;;;;;;;;14.75;32.26;99001.47;4476245;32;32773;-73
2021/12/03 09:01:26;;;;;;;;;;;;;;;14.63;32.93;99012.47;4476649;32;34089;-74
2021/12/03 09:03:54;;;;;;;;;;;;;;;14.49;31.63;99014.88;4457699;32;33089;-74
2021/12/03 09:06:21;;;;;;;;;;;;;;;13.07;34.46;99030.75;4470436;32;34323;-73
2021/12/03 09:08:49;;;;;;;;;;;;;;;12.93;33.87;99034.75;4469432;32;34266;-74
2021/12/03 09:11:17;;;;;;;;;;;;;;;13.70;33.85;99038.91;4480608;32;34082;-74
2021/12/03 09:13:46;;;;;;;;;;;;;;;14.42;33.25;99042.44;4473276;32;33497;-74
2021/12/03 09:16:17;;;;;;;;;;;;;;;15.41;31.16;99048.41;4472169;32;34193;-74
2021/12/03 09:18:46;;;;;;;;;;;;;;;15.10;31.30;99052.50;4462024;32;33229;-74
2021/12/03 09:21:27;;;;;;;;;;;;;;;15.49;30.99;99057.41;4465607;32;35117;-74
2021/12/03 09:24:08;;;;;;;;;;;;;;;16.82;29.33;99060.12;4474216;32;34323;-74
2021/12/03 09:26:41;;;;;;;;;;;;;;;16.59;28.92;99062.66;4474281;32;33052;-75
2021/12/03 09:29:11;;;;;;;;;;;;;;;16.26;28.49;99060.81;4478786;32;33131;-74
2021/12/03 09:31:42;;;;;;;;;;;;;;;15.78;29.72;99059.72;4474889;32;33596;-74
2021/12/03 09:34:11;;;;;;;;;;;;;;;14.27;33.90;99067.38;4473756;32;33501;-74
2021/12/03 09:36:42;;;;;;;;;;;;;;;14.51;31.91;99056.84;4463110;32;34242;-74
2021/12/03 09:39:14;;;;;;;;;;;;;;;14.49;32.75;99056.13;4480320;32;34215;-74
2021/12/03 09:41:42;;;;;;;;;;;;;;;14.99;32.02;99066.28;4473569;32;35113;-72
2021/12/03 09:44:09;;;;;;;;;;;;;;;15.22;32.88;99065.72;4478633;32;32108;-73
2021/12/03 09:46:36;;;;;;;;;;;;;;;15.71;28.55;99060.53;4479485;32;34969;-73
2021/12/03 09:57:06;;;;;;;;;;;;;;;15.60;29.49;99067.91;4478303;32;34212;-75
2021/12/03 10:00:06;;;;;;;;;;;;;;;16.68;27.99;99059.78;4472573;32;33121;-75
2021/12/03 10:03:10;;;;;;;;;;;;;;;17.25;27.25;99058.88;4473135;32;34037;-75
2021/12/03 10:13:36;;;;;;;;;;;;;;;20.07;23.22;99074.06;4468808;32;34292;-76
2021/12/03 10:18:47;;;;;;;;;;;;;;;17.50;27.07;99088.53;4469624;32;33893;-75
2021/12/03 10:21:39;;;;;;;;;;;;;;;18.49;24.65;99078.81;4471343;32;34278;-75
2021/12/03 10:25:02;;;;;;;;;;;;;;;18.47;24.70;99086.31;4462059;32;33079;-75
2021/12/03 10:40:25;;;;;;;;;;;;;;;17.21;27.96;99101.63;4475189;32;34286;-75
2021/12/03 10:43:10;;;;;;;;;;;;;;;16.68;26.98;99105.72;4476301;32;34215;-75
2021/12/03 10:45:48;;;;;;;;;;;;;;;16.40;27.11;99096.25;4469936;32;34597;-75
2021/12/03 10:51:11;;;;;;;;;;;;;;;15.22;29.23;99103.47;4477721;32;34261;-74
2021/12/03 10:53:44;;;;;;;;;;;;;;;14.68;31.51;99100.91;4469301;32;34409;-75
2021/12/03 10:56:38;;;;;;;;;;;;;;;13.87;31.37;99111.72;4477952;32;32852;-75
2021/12/03 12:01:29;;;;;;;;;;;;;;;9.98;33.59;99179.63;4391416;32;34222;-74
2021/12/03 12:30:17;;;;;;;;;;;;;;;11.43;34.85;99204.91;4467587;32;32329;-75
2021/12/03 13:11:12;;;;;;;;;;;;;;;13.08;33.39;99219.66;4467709;32;35271;-74
2021/12/03 14:45:37;;;;;;;;;;;;;;;14.55;28.77;99318.59;4465898;32;35399;-73
2021/12/03 14:53:37;;;;;;;;;;;;;;;14.63;28.47;99321.38;4470871;32;34012;-74
2021/12/03 14:56:07;;;;;;;;;;;;;;;14.22;29.11;99326.22;4468560;32;34492;-73
2021/12/03 15:04:19;;;;;;;;;;;;;;;14.73;28.51;99337.47;4472251;32;34710;-72
2021/12/03 15:07:04;;;;;;;;;;;;;;;14.66;28.14;99343.47;4458085;32;33441;-72
2021/12/03 15:09:38;;;;;;;;;;;;;;;14.20;29.20;99339.81;4469880;32;34014;-71
2021/12/03 15:15:15;;;;;;;;;;;;;;;14.13;28.70;99354.03;4452964;32;34339;-74
2021/12/03 15:25:56;;;;;;;;;;;;;;;14.11;28.71;99356.00;4474220;32;33696;-74
2021/12/03 15:33:59;;;;;;;;;;;;;;;13.92;29.09;99367.66;4468904;32;34316;-73
2021/12/03 15:54:03;;;;;;;;;;;;;;;13.54;29.86;99369.41;4453017;32;35206;-74
2021/12/03 16:04:19;;;;;;;;;;;;;;;12.17;30.37;99386.22;4460951;32;34530;-73
2021/12/03 16:25:26;;;;;;;;;;;;;;;11.95;29.24;99430.13;4462268;32;35053;-71
2021/12/03 16:50:12;;;;;;;;;;;;;;;11.06;31.65;99450.06;4459687;32;32300;-71
2021/12/03 16:52:38;;;;;;;;;;;;;;;10.86;31.55;99447.19;4465263;32;34235;-71
2021/12/03 16:55:13;;;;;;;;;;;;;;;11.05;30.54;99445.72;4469805;32;33751;-72
2021/12/03 16:57:44;;;;;;;;;;;;;;;10.44;33.42;99446.97;4463877;32;35001;-71
2021/12/03 17:03:11;;;;;;;;;;;;;;;10.54;31.84;99455.13;4471034;32;33212;-71
2021/12/03 17:08:28;;;;;;;;;;;;;;;10.54;32.51;99448.91;4469968;32;33980;-73
2021/12/03 17:46:03;;;;;;;;;;;;;;;10.40;33.68;99480.28;4451953;32;34164;-73
2021/12/03 17:51:36;;;;;;;;;;;;;;;10.55;32.49;99472.88;4455834;32;34345;-73
2021/12/03 17:56:49;;;;;;;;;;;;;;;10.29;32.45;99480.25;4475260;32;32191;-72
2021/12/03 17:59:20;;;;;;;;;;;;;;;10.69;31.70;99479.81;4471141;32;34654;-72
2021/12/03 18:02:16;;;;;;;;;;;;;;;10.58;31.36;99482.47;4461200;32;33889;-73
2021/12/03 18:07:44;;;;;;;;;;;;;;;9.65;32.57;99488.66;4467244;32;34822;-72
2021/12/03 18:58:50;;;;;;;;;;;;;;;9.79;32.99;99490.28;4462745;32;33366;-72
2021/12/03 19:01:18;;;;;;;;;;;;;;;9.70;33.61;99499.03;4468070;32;33993;-72
2021/12/03 19:06:40;;;;;;;;;;;;;;;9.87;32.67;99501.28;4458736;32;34330;-73
2021/12/03 19:09:36;;;;;;;;;;;;;;;9.74;33.47;99488.00;4457725;32;34072;-72
2021/12/03 19:14:28;;;;;;;;;;;;;;;9.85;33.08;99486.31;4467778;32;33269;-75
2021/12/03 19:16:56;;;;;;;;;;;;;;;9.87;33.53;99487.06;4473865;32;34167;-73
2021/12/03 19:19:26;;;;;;;;;;;;;;;9.65;34.52;99485.16;4466290;32;33100;-73
2021/12/03 19:21:57;;;;;;;;;;;;;;;9.47;35.84;99488.25;4452235;32;32843;-73
2021/12/03 19:24:25;;;;;;;;;;;;;;;9.36;35.04;99479.31;4467457;32;34221;-74
2021/12/03 19:26:54;;;;;;;;;;;;;;;9.74;33.53;99490.66;4461709;32;34549;-74
2021/12/03 19:29:23;;;;;;;;;;;;;;;9.37;34.26;99491.69;4470513;32;33494;-73
2021/12/03 19:31:51;;;;;;;;;;;;;;;9.48;34.52;99489.94;4468191;32;34271;-73
2021/12/03 19:34:19;;;;;;;;;;;;;;;9.85;33.54;99491.66;4469875;32;34782;-73
2021/12/03 19:36:47;;;;;;;;;;;;;;;9.80;34.88;99503.56;4468309;32;34781;-74
2021/12/03 19:39:15;;;;;;;;;;;;;;;9.74;33.56;99501.34;4469602;32;33479;-74
2021/12/03 19:44:41;;;;;;;;;;;;;;;9.49;33.51;99501.47;4472785;32;34458;-73
2021/12/03 19:47:10;;;;;;;;;;;;;;;9.01;35.89;99502.28;4475778;32;33438;-73
2021/12/03 19:49:50;;;;;;;;;;;;;;;9.18;34.47;99501.06;4467168;32;34111;-74
2021/12/03 19:54:48;;;;;;;;;;;;;;;8.83;35.96;99498.28;4468518;32;33351;-74
2021/12/03 19:57:15;;;;;;;;;;;;;;;9.02;34.95;99504.00;4468484;32;35186;-73
2021/12/03 19:59:43;;;;;;;;;;;;;;;9.05;35.82;99505.56;4471057;32;32786;-74
2021/12/03 20:02:11;;;;;;;;;;;;;;;8.80;35.41;99509.16;4459608;32;35196;-73
2021/12/03 20:04:38;;;;;;;;;;;;;;;8.96;34.69;99512.44;4453341;32;34019;-74
2021/12/03 20:07:06;;;;;;;;;;;;;;;8.88;35.43;99511.28;4472462;32;34328;-73
2021/12/03 20:09:58;;;;;;;;;;;;;;;8.77;35.97;99507.56;4468796;32;33406;-74
2021/12/03 20:12:27;;;;;;;;;;;;;;;8.79;35.69;99507.44;4469163;32;33013;-75
2021/12/03 20:14:56;;;;;;;;;;;;;;;8.56;36.49;99515.25;4456585;32;34172;-77
2021/12/03 20:17:32;;;;;;;;;;;;;;;8.85;34.57;99513.19;4454998;32;34454;-79
2021/12/03 20:20:02;;;;;;;;;;;;;;;8.88;34.54;99517.47;4458029;32;33622;-72
2021/12/03 20:27:39;;;;;;;;;;;;;;;9.04;34.41;99512.72;4466089;32;34002;-69
2021/12/03 20:30:15;;;;;;;;;;;;;;;9.04;35.39;99511.88;4467984;32;33543;-74
2021/12/03 20:38:17;;;;;;;;;;;;;;;8.83;34.47;99503.63;4469818;32;33008;-71
2021/12/03 20:40:51;;;;;;;;;;;;;;;8.71;35.48;99504.47;4456772;32;33066;-70
2021/12/03 20:45:57;;;;;;;;;;;;;;;8.88;34.47;99522.81;4460488;32;34380;-69
2021/12/03 21:10:12;;;;;;;;;;;;;;;8.81;34.60;99526.88;4456890;32;34303;-76
2021/12/03 21:12:47;;;;;;;;;;;;;;;8.84;34.57;99530.19;4453164;32;32450;-75
2021/12/03 21:21:01;;;;;;;;;;;;;;;8.96;35.27;99512.44;4438026;32;32796;-76
2021/12/03 21:23:33;;;;;;;;;;;;;;;8.95;34.80;99516.06;4453033;32;33139;-76